Time;durP1;ratioP1;P1;durP2;ratioP2;P2;SDS_P1;SDS_P2;PMS_P1;PMS_P2;Temp;Humidity;BMP_temperature;BMP_pressure;BME280_temperature;BME280_humidity;BME280_pressure;Samples;Min_cycle;Max_cycle;Signal;HPM_P1;HPM_P2
2021/01/12 00:02:11;;;;;;;8.30;6.90;;;6.60;99.90;;;;;;5013498;28;21742;-73
2021/01/12 00:04:37;;;;;;;9.87;6.47;;;6.60;99.90;;;;;;5052095;28;21438;-75
2021/01/12 00:07:04;;;;;;;10.97;6.80;;;6.60;99.90;;;;;;5017281;28;20299;-75
2021/01/12 00:09:31;;;;;;;8.10;5.10;;;6.60;99.90;;;;;;5017971;28;20279;-74
2021/01/12 00:11:58;;;;;;;8.03;5.20;;;6.60;99.90;;;;;;5025522;28;20190;-74
2021/01/12 00:14:32;;;;;;;7.27;5.67;;;6.60;99.90;;;;;;5026702;28;20562;-74
2021/01/12 00:17:07;;;;;;;8.20;5.53;;;6.60;99.90;;;;;;5028778;28;21203;-76
2021/01/12 00:19:34;;;;;;;5.20;3.80;;;6.60;99.90;;;;;;5025445;28;20246;-75
2021/01/12 00:22:02;;;;;;;9.33;5.87;;;6.60;99.90;;;;;;5025340;28;20197;-78
2021/01/12 00:24:29;;;;;;;6.90;5.30;;;6.60;99.90;;;;;;5027152;28;20239;-74
2021/01/12 00:26:55;;;;;;;6.80;4.87;;;6.60;99.90;;;;;;5034221;28;20248;-75
2021/01/12 00:29:22;;;;;;;5.33;4.17;;;6.60;99.90;;;;;;5034993;28;20261;-78
2021/01/12 00:31:48;;;;;;;6.03;4.43;;;6.60;99.90;;;;;;5009669;28;20575;-74
2021/01/12 00:34:15;;;;;;;10.17;4.80;;;6.60;99.90;;;;;;5025918;28;20278;-75
2021/01/12 00:36:47;;;;;;;5.87;4.40;;;6.60;99.90;;;;;;5017014;28;20635;-76
2021/01/12 00:39:13;;;;;;;5.87;4.70;;;6.60;99.90;;;;;;5057907;28;20205;-75
2021/01/12 00:41:41;;;;;;;5.03;3.90;;;6.60;99.90;;;;;;5022297;28;20210;-76
2021/01/12 00:44:07;;;;;;;6.27;4.47;;;6.60;99.90;;;;;;5020287;28;20625;-75
2021/01/12 00:46:34;;;;;;;6.63;3.70;;;6.60;99.90;;;;;;5011757;28;20658;-76
2021/01/12 00:49:00;;;;;;;4.90;3.60;;;6.60;99.90;;;;;;5032574;28;20661;-75
2021/01/12 00:51:40;;;;;;;6.30;3.77;;;6.50;99.90;;;;;;5019913;28;20202;-75
2021/01/12 00:54:10;;;;;;;5.57;3.93;;;6.50;99.90;;;;;;5036924;28;20193;-76
2021/01/12 00:56:46;;;;;;;5.47;3.83;;;6.50;99.90;;;;;;5036531;28;20283;-75
2021/01/12 00:59:13;;;;;;;6.03;3.63;;;6.50;99.90;;;;;;5018890;28;20202;-75
2021/01/12 01:01:40;;;;;;;4.83;3.50;;;6.50;99.90;;;;;;5017025;28;20203;-75
2021/01/12 01:04:07;;;;;;;7.13;4.10;;;6.50;99.90;;;;;;5032967;28;20207;-75
2021/01/12 01:06:35;;;;;;;5.40;3.63;;;6.50;99.90;;;;;;5025622;28;20229;-74
2021/01/12 01:09:02;;;;;;;8.00;4.07;;;6.50;99.90;;;;;;5030303;28;20205;-75
2021/01/12 01:11:28;;;;;;;8.30;3.23;;;6.50;99.90;;;;;;5035485;28;20269;-78
2021/01/12 01:13:56;;;;;;;5.40;4.17;;;6.50;99.90;;;;;;5037612;28;20207;-75
2021/01/12 01:16:30;;;;;;;3.60;3.20;;;6.60;99.90;;;;;;5038125;28;20236;-74
2021/01/12 01:18:57;;;;;;;6.03;3.37;;;6.60;99.90;;;;;;5019161;28;20254;-75
2021/01/12 01:21:23;;;;;;;4.20;3.23;;;6.60;99.90;;;;;;5022774;28;20206;-75
2021/01/12 01:23:50;;;;;;;5.80;3.40;;;6.60;99.90;;;;;;5020226;28;20239;-75
2021/01/12 01:26:17;;;;;;;3.97;3.53;;;6.60;99.90;;;;;;5018882;28;20286;-74
2021/01/12 01:28:44;;;;;;;4.83;3.70;;;6.60;99.90;;;;;;5042411;28;20196;-75
2021/01/12 01:31:11;;;;;;;5.07;3.90;;;6.60;99.90;;;;;;5021292;28;20254;-74
2021/01/12 01:33:37;;;;;;;6.43;3.73;;;6.60;99.90;;;;;;5025573;28;20262;-75
2021/01/12 01:36:05;;;;;;;5.30;3.53;;;6.60;99.90;;;;;;5025470;28;20202;-75
2021/01/12 01:38:32;;;;;;;5.73;4.30;;;6.70;99.90;;;;;;5027015;28;20206;-75
2021/01/12 01:40:58;;;;;;;5.77;4.43;;;6.70;99.90;;;;;;5061842;28;20264;-75
2021/01/12 01:43:25;;;;;;;5.83;4.50;;;6.70;99.90;;;;;;5011743;28;20811;-74
2021/01/12 01:45:52;;;;;;;5.47;4.27;;;6.70;99.90;;;;;;5018076;28;20227;-76
2021/01/12 01:48:21;;;;;;;5.57;3.90;;;6.80;99.90;;;;;;5038438;28;20645;-75
2021/01/12 01:50:47;;;;;;;5.43;3.97;;;6.80;99.90;;;;;;5023654;28;21005;-75
2021/01/12 01:53:14;;;;;;;6.30;4.43;;;6.90;99.90;;;;;;5036915;28;20212;-75
2021/01/12 01:55:41;;;;;;;5.23;4.53;;;6.90;99.90;;;;;;5023912;28;20202;-76
2021/01/12 01:58:09;;;;;;;4.63;4.00;;;7.00;99.90;;;;;;5052179;28;20566;-75
2021/01/12 02:00:36;;;;;;;6.03;4.07;;;6.90;99.90;;;;;;5029851;28;20199;-77
2021/01/12 02:03:12;;;;;;;4.50;3.63;;;7.00;99.90;;;;;;5040497;28;20219;-75
2021/01/12 02:05:41;;;;;;;5.40;4.63;;;7.00;99.90;;;;;;5041587;28;20253;-75
2021/01/12 02:08:23;;;;;;;9.30;4.90;;;7.10;99.90;;;;;;5030717;28;20301;-76
2021/01/12 02:10:52;;;;;;;4.17;3.03;;;7.10;99.90;;;;;;5032086;28;20243;-75
2021/01/12 02:13:24;;;;;;;6.13;3.90;;;7.10;99.90;;;;;;5030383;28;20673;-75
2021/01/12 02:15:54;;;;;;;4.17;3.57;;;7.10;99.90;;;;;;5021228;28;20630;-76
2021/01/12 02:18:21;;;;;;;4.23;3.27;;;7.10;99.90;;;;;;5044712;28;20322;-76
2021/01/12 02:20:49;;;;;;;4.07;3.30;;;7.20;99.90;;;;;;5041057;28;20862;-75
2021/01/12 02:23:28;;;;;;;3.57;2.83;;;7.20;99.90;;;;;;5052528;28;20234;-75
2021/01/12 02:25:55;;;;;;;3.23;2.83;;;7.20;99.90;;;;;;5054190;28;20286;-75
2021/01/12 02:28:22;;;;;;;5.73;3.10;;;7.30;99.90;;;;;;5042997;28;20236;-75
2021/01/12 02:30:48;;;;;;;4.20;2.93;;;7.30;99.90;;;;;;5041386;28;20239;-77
2021/01/12 02:33:15;;;;;;;3.53;2.60;;;7.30;99.90;;;;;;5040581;28;20262;-76
2021/01/12 02:35:44;;;;;;;6.03;2.47;;;7.40;99.90;;;;;;5025069;28;20195;-76
2021/01/12 02:38:12;;;;;;;4.47;2.67;;;7.30;99.90;;;;;;5020553;28;20281;-76
2021/01/12 02:40:38;;;;;;;4.03;2.73;;;7.40;99.90;;;;;;5023638;28;20205;-75
2021/01/12 02:43:05;;;;;;;4.40;3.13;;;7.40;99.90;;;;;;5026448;28;20285;-74
2021/01/12 02:45:31;;;;;;;4.77;2.57;;;7.40;99.90;;;;;;5021119;28;20248;-76
2021/01/12 02:47:58;;;;;;;3.20;2.60;;;7.40;99.90;;;;;;5017992;28;20690;-76
2021/01/12 02:50:25;;;;;;;4.83;2.00;;;7.40;99.90;;;;;;5049747;28;20209;-74
2021/01/12 02:52:51;;;;;;;3.73;2.63;;;7.40;99.90;;;;;;5057782;28;20202;-75
2021/01/12 02:55:18;;;;;;;4.53;2.30;;;7.40;99.90;;;;;;5045788;28;20288;-75
2021/01/12 02:57:44;;;;;;;4.67;1.90;;;7.50;99.90;;;;;;5027211;28;20574;-76
2021/01/12 03:00:16;;;;;;;4.13;2.20;;;7.50;99.90;;;;;;5013364;28;20220;-74
2021/01/12 03:02:43;;;;;;;3.40;2.10;;;7.50;99.90;;;;;;5058330;28;20207;-75
2021/01/12 03:05:10;;;;;;;3.10;2.33;;;7.60;99.90;;;;;;5027658;28;20198;-75
2021/01/12 03:07:37;;;;;;;2.57;1.90;;;7.60;99.90;;;;;;5037321;28;20205;-74
2021/01/12 03:10:04;;;;;;;2.40;2.07;;;7.50;99.90;;;;;;5040845;28;20197;-74
2021/01/12 03:12:31;;;;;;;2.50;2.10;;;7.50;99.90;;;;;;5027893;28;20203;-75
2021/01/12 03:14:57;;;;;;;4.67;2.00;;;7.60;99.90;;;;;;5025122;28;20209;-78
2021/01/12 03:17:24;;;;;;;5.57;1.67;;;7.60;99.90;;;;;;5020543;28;20259;-75
2021/01/12 03:19:50;;;;;;;2.13;1.70;;;7.50;99.90;;;;;;5010380;28;20626;-74
2021/01/12 03:22:16;;;;;;;6.30;2.00;;;7.50;99.90;;;;;;5023539;28;20290;-74
2021/01/12 03:24:43;;;;;;;3.70;2.47;;;7.50;99.90;;;;;;5006489;28;20246;-73
2021/01/12 03:27:09;;;;;;;2.83;1.90;;;7.60;99.90;;;;;;5016140;28;20282;-75
2021/01/12 03:29:35;;;;;;;2.97;2.13;;;7.60;99.90;;;;;;5034986;28;20209;-77
2021/01/12 03:32:02;;;;;;;3.33;2.10;;;7.60;99.90;;;;;;5024867;28;20227;-75
2021/01/12 03:34:28;;;;;;;2.97;2.20;;;7.60;99.90;;;;;;5018453;28;20196;-75
2021/01/12 03:36:55;;;;;;;4.07;1.70;;;7.60;99.90;;;;;;5037201;28;20232;-75
2021/01/12 03:39:21;;;;;;;3.27;2.20;;;7.60;99.90;;;;;;5024878;28;20210;-75
2021/01/12 03:41:48;;;;;;;2.37;1.57;;;7.60;99.90;;;;;;5012768;28;20214;-75
2021/01/12 03:44:14;;;;;;;2.43;1.80;;;7.60;99.90;;;;;;5040661;28;20255;-77
2021/01/12 03:46:40;;;;;;;3.33;2.10;;;7.60;99.90;;;;;;5013737;28;20243;-76
2021/01/12 03:49:07;;;;;;;3.70;1.60;;;7.60;99.90;;;;;;5015146;28;20229;-76
2021/01/12 03:51:34;;;;;;;4.43;2.07;;;7.70;99.90;;;;;;5015789;28;20344;-76
2021/01/12 03:54:00;;;;;;;2.60;1.33;;;7.70;99.90;;;;;;5028999;28;20205;-76
2021/01/12 03:56:26;;;;;;;2.53;1.97;;;7.70;99.90;;;;;;5011819;28;20236;-77
2021/01/12 03:58:52;;;;;;;4.57;1.80;;;7.70;99.90;;;;;;5022841;28;20815;-80
2021/01/12 04:01:19;;;;;;;3.23;1.93;;;7.70;99.90;;;;;;5017912;28;20205;-76
2021/01/12 04:03:45;;;;;;;2.83;1.53;;;7.70;99.90;;;;;;5033759;28;20209;-75
2021/01/12 04:06:13;;;;;;;3.10;1.23;;;7.70;99.90;;;;;;5010190;28;20281;-74
2021/01/12 04:08:41;;;;;;;2.10;1.60;;;7.80;99.90;;;;;;5040865;28;20222;-77
2021/01/12 04:11:08;;;;;;;2.47;1.60;;;7.80;99.90;;;;;;5008735;28;20404;-76
2021/01/12 04:13:34;;;;;;;2.17;1.13;;;7.70;99.90;;;;;;5023267;28;20558;-76
2021/01/12 04:16:02;;;;;;;1.43;1.00;;;7.80;99.90;;;;;;5010661;28;21536;-76
2021/01/12 04:18:29;;;;;;;4.40;1.50;;;7.80;99.90;;;;;;5060339;28;20531;-75
2021/01/12 04:20:55;;;;;;;1.60;1.00;;;7.90;99.90;;;;;;5018686;28;20647;-74
2021/01/12 04:23:22;;;;;;;3.03;1.00;;;7.80;99.90;;;;;;5024223;28;20911;-75
2021/01/12 04:25:48;;;;;;;5.00;0.77;;;7.90;99.90;;;;;;5023915;28;20268;-78
2021/01/12 04:28:14;;;;;;;1.07;0.97;;;8.00;99.90;;;;;;5028117;28;20194;-75
2021/01/12 04:30:41;;;;;;;1.33;0.83;;;7.90;99.90;;;;;;5028549;28;20324;-74
2021/01/12 04:33:08;;;;;;;1.33;1.10;;;7.90;99.90;;;;;;5021599;28;20206;-76
2021/01/12 04:35:34;;;;;;;3.57;1.03;;;7.90;99.90;;;;;;5008289;28;20196;-76
2021/01/12 04:38:01;;;;;;;2.87;1.17;;;7.90;99.90;;;;;;5018162;28;20203;-75
2021/01/12 04:40:28;;;;;;;1.43;0.80;;;8.00;99.90;;;;;;5017854;28;20193;-75
2021/01/12 04:42:59;;;;;;;2.67;1.20;;;7.90;99.90;;;;;;5046429;28;20271;-76
2021/01/12 04:45:26;;;;;;;1.37;0.90;;;7.90;99.90;;;;;;5040564;28;20210;-75
2021/01/12 04:47:52;;;;;;;3.07;1.00;;;7.90;99.90;;;;;;5014016;28;20246;-75
2021/01/12 04:50:19;;;;;;;3.23;1.10;;;7.90;99.90;;;;;;5024018;28;20288;-78
2021/01/12 04:52:47;;;;;;;3.40;1.03;;;8.00;99.90;;;;;;5010519;28;20874;-76
2021/01/12 04:55:15;;;;;;;2.67;1.30;;;8.00;99.90;;;;;;5029864;28;20210;-75
2021/01/12 04:57:42;;;;;;;3.27;1.20;;;8.00;99.90;;;;;;5019217;28;20230;-75
2021/01/12 05:00:27;;;;;;;3.47;1.10;;;8.00;99.90;;;;;;5026501;28;20562;-75
2021/01/12 05:03:07;;;;;;;3.70;0.93;;;8.00;99.90;;;;;;5063344;28;20258;-75
2021/01/12 05:05:38;;;;;;;3.30;0.93;;;8.00;99.90;;;;;;5033149;28;20275;-74
2021/01/12 05:08:17;;;;;;;1.87;0.97;;;8.10;99.90;;;;;;5042364;28;20204;-74
2021/01/12 05:10:50;;;;;;;3.53;1.00;;;8.10;99.90;;;;;;5026339;28;20561;-74
2021/01/12 05:13:20;;;;;;;0.97;0.67;;;8.10;99.90;;;;;;5023111;28;20555;-74
2021/01/12 05:15:47;;;;;;;1.37;0.83;;;8.10;99.90;;;;;;5041606;28;20272;-75
2021/01/12 05:18:17;;;;;;;3.20;0.97;;;8.20;99.90;;;;;;5023368;28;20256;-76
2021/01/12 05:20:47;;;;;;;0.77;0.70;;;8.20;99.90;;;;;;5021002;28;20271;-74
2021/01/12 05:23:22;;;;;;;3.10;0.87;;;8.20;99.90;;;;;;5043604;28;20583;-75
2021/01/12 05:25:51;;;;;;;2.77;0.90;;;8.20;99.90;;;;;;5025277;28;20224;-75
2021/01/12 05:28:18;;;;;;;1.90;0.90;;;8.30;99.90;;;;;;5055050;28;20284;-75
2021/01/12 05:30:47;;;;;;;3.13;1.10;;;8.30;99.90;;;;;;5012152;28;21054;-74
2021/01/12 05:33:19;;;;;;;2.10;1.00;;;8.20;99.90;;;;;;5012418;28;20280;-75
2021/01/12 05:35:49;;;;;;;3.87;0.80;;;8.30;99.90;;;;;;5043777;28;20272;-74
2021/01/12 05:38:28;;;;;;;2.70;0.67;;;8.40;99.90;;;;;;5024683;28;20282;-75
2021/01/12 05:40:58;;;;;;;2.93;0.83;;;8.30;99.90;;;;;;5024995;28;20202;-75
2021/01/12 05:43:37;;;;;;;2.07;0.90;;;8.20;99.90;;;;;;5033317;28;20661;-75
2021/01/12 05:46:11;;;;;;;2.47;0.93;;;8.30;99.90;;;;;;5062701;28;20230;-75
2021/01/12 05:48:42;;;;;;;2.10;0.80;;;8.30;99.90;;;;;;5043494;28;20195;-75
2021/01/12 05:51:14;;;;;;;2.40;0.70;;;8.30;99.90;;;;;;5059822;28;20668;-76
2021/01/12 05:54:04;;;;;;;1.90;0.70;;;8.30;99.90;;;;;;5023505;28;20593;-75
2021/01/12 05:56:31;;;;;;;2.93;0.80;;;8.30;99.90;;;;;;5028018;28;20203;-76
2021/01/12 05:58:59;;;;;;;5.07;1.00;;;8.30;99.90;;;;;;5041546;28;20291;-75
2021/01/12 06:01:42;;;;;;;2.30;0.90;;;8.30;99.90;;;;;;5025530;28;20211;-75
2021/01/12 06:04:11;;;;;;;2.23;0.70;;;8.30;99.90;;;;;;5033543;28;20583;-75
2021/01/12 06:06:39;;;;;;;8.30;1.33;;;8.30;99.90;;;;;;5041993;28;20644;-77
2021/01/12 06:09:11;;;;;;;4.30;1.07;;;8.30;99.90;;;;;;5011524;28;20226;-77
2021/01/12 06:11:39;;;;;;;5.53;0.90;;;8.40;99.90;;;;;;5031042;28;20312;-76
2021/01/12 06:14:16;;;;;;;1.50;0.80;;;8.40;99.90;;;;;;5042766;28;20574;-74
2021/01/12 06:16:46;;;;;;;1.63;0.80;;;8.30;99.90;;;;;;5041946;28;20276;-75
2021/01/12 06:19:17;;;;;;;2.50;1.07;;;8.30;99.90;;;;;;5050909;28;20248;-74
2021/01/12 06:22:03;;;;;;;4.47;0.93;;;8.30;99.90;;;;;;5031004;28;20531;-75
2021/01/12 06:24:39;;;;;;;5.77;1.30;;;8.30;99.90;;;;;;5045641;28;20246;-77
2021/01/12 06:27:18;;;;;;;3.27;1.00;;;8.30;99.90;;;;;;5042185;28;20245;-76
2021/01/12 06:29:49;;;;;;;4.23;1.73;;;8.40;99.90;;;;;;5045574;28;20254;-74
2021/01/12 06:32:24;;;;;;;3.07;1.40;;;8.40;99.90;;;;;;5029694;28;21503;-74
2021/01/12 06:34:53;;;;;;;1.60;1.03;;;8.40;99.90;;;;;;5031303;28;20356;-75
2021/01/12 06:37:21;;;;;;;5.07;1.47;;;8.40;99.90;;;;;;5044321;28;20692;-74
2021/01/12 06:39:50;;;;;;;4.33;1.40;;;8.40;99.90;;;;;;5017102;28;20276;-74
2021/01/12 06:42:21;;;;;;;6.20;1.20;;;8.50;99.90;;;;;;5036240;28;20558;-74
2021/01/12 06:44:50;;;;;;;3.67;1.20;;;8.50;99.90;;;;;;5027074;28;20710;-73
2021/01/12 06:47:19;;;;;;;4.10;1.30;;;8.50;99.90;;;;;;5041930;28;20306;-73
2021/01/12 06:49:46;;;;;;;3.90;1.43;;;8.50;99.90;;;;;;5025377;28;20201;-75
2021/01/12 06:52:13;;;;;;;2.53;0.70;;;8.50;99.90;;;;;;5038031;28;20301;-74
2021/01/12 06:54:45;;;;;;;1.20;0.80;;;8.40;99.90;;;;;;5038752;28;20208;-74
2021/01/12 06:57:13;;;;;;;3.97;1.10;;;8.40;99.90;;;;;;5046431;28;20691;-73
2021/01/12 06:59:39;;;;;;;3.13;1.00;;;8.40;99.90;;;;;;5026208;28;20210;-74
2021/01/12 07:02:17;;;;;;;3.60;1.30;;;8.50;99.90;;;;;;5041530;28;20239;-75
2021/01/12 07:05:06;;;;;;;2.97;0.90;;;8.50;99.90;;;;;;5022836;28;20290;-77
2021/01/12 07:07:46;;;;;;;3.27;1.27;;;8.50;99.90;;;;;;5039885;28;20227;-74
2021/01/12 07:10:17;;;;;;;3.37;1.37;;;8.50;99.90;;;;;;5033558;28;20254;-76
2021/01/12 07:12:45;;;;;;;1.67;1.03;;;8.40;99.90;;;;;;5029126;28;20203;-76
2021/01/12 07:15:16;;;;;;;3.73;1.60;;;8.40;99.90;;;;;;5028570;28;20207;-76
2021/01/12 07:17:45;;;;;;;5.70;1.87;;;8.40;99.90;;;;;;5023932;28;20520;-72
2021/01/12 07:20:18;;;;;;;4.30;1.60;;;8.50;99.90;;;;;;5039356;28;20208;-73
2021/01/12 07:23:00;;;;;;;2.63;1.27;;;8.50;99.90;;;;;;5048020;28;20214;-75
2021/01/12 07:25:46;;;;;;;3.83;1.17;;;8.40;99.90;;;;;;5039272;28;20646;-72
2021/01/12 07:28:20;;;;;;;3.20;1.67;;;8.50;99.90;;;;;;5016208;28;20195;-73
2021/01/12 07:30:52;;;;;;;3.57;1.50;;;8.50;99.90;;;;;;5045846;28;20661;-73
2021/01/12 07:33:21;;;;;;;5.27;1.90;;;8.50;99.90;;;;;;5032639;28;20205;-74
2021/01/12 07:35:50;;;;;;;7.33;1.63;;;8.40;99.90;;;;;;5020710;28;20214;-78
2021/01/12 07:38:19;;;;;;;6.03;1.97;;;8.50;99.90;;;;;;5056430;28;20205;-75
2021/01/12 07:40:45;;;;;;;3.53;2.67;;;8.40;99.90;;;;;;5034719;28;20250;-74
2021/01/12 07:43:16;;;;;;;2.97;1.73;;;8.40;99.90;;;;;;5026978;28;20198;-73
2021/01/12 07:45:44;;;;;;;4.43;1.53;;;8.30;99.90;;;;;;5037391;28;20261;-75
2021/01/12 07:48:11;;;;;;;5.37;1.33;;;8.30;99.90;;;;;;5025742;28;20249;-74
2021/01/12 07:50:40;;;;;;;1.33;1.10;;;8.20;99.90;;;;;;5022592;28;20689;-74
2021/01/12 07:53:07;;;;;;;5.43;1.27;;;8.20;99.90;;;;;;5027483;28;20203;-76
2021/01/12 07:55:34;;;;;;;4.53;1.60;;;8.20;99.90;;;;;;5036914;28;20204;-75
2021/01/12 07:58:00;;;;;;;3.87;0.90;;;8.20;99.90;;;;;;5027880;28;20551;-74
2021/01/12 08:00:27;;;;;;;2.60;0.97;;;8.10;99.90;;;;;;5009470;28;20245;-74
2021/01/12 08:02:55;;;;;;;0.50;0.37;;;7.90;99.90;;;;;;5034241;28;20266;-75
2021/01/12 08:05:24;;;;;;;2.60;0.80;;;8.00;99.90;;;;;;5036760;28;20213;-74
2021/01/12 08:08:06;;;;;;;0.73;0.60;;;8.00;99.90;;;;;;5016918;28;21175;-74
2021/01/12 08:10:34;;;;;;;4.53;0.87;;;8.00;99.90;;;;;;5025511;28;20252;-74
2021/01/12 08:13:14;;;;;;;2.37;0.93;;;8.00;99.90;;;;;;5025149;28;20214;-73
2021/01/12 08:15:45;;;;;;;4.70;1.10;;;7.90;99.90;;;;;;5022860;28;20216;-75
2021/01/12 08:18:19;;;;;;;3.07;1.00;;;7.90;99.90;;;;;;5026081;28;20240;-75
2021/01/12 08:20:47;;;;;;;1.03;0.73;;;8.00;99.90;;;;;;5032877;28;20246;-75
2021/01/12 08:23:17;;;;;;;1.80;1.07;;;8.00;99.90;;;;;;5027862;28;20268;-74
2021/01/12 08:25:44;;;;;;;2.57;0.73;;;8.00;99.90;;;;;;5024534;28;20265;-75
2021/01/12 08:28:11;;;;;;;1.57;0.93;;;8.00;99.90;;;;;;5038550;28;20225;-75
2021/01/12 08:30:39;;;;;;;2.40;1.37;;;8.10;99.90;;;;;;5017072;28;20253;-74
2021/01/12 08:33:20;;;;;;;2.77;0.90;;;8.10;99.90;;;;;;5027839;28;20203;-74
2021/01/12 08:35:52;;;;;;;3.33;1.07;;;8.10;99.90;;;;;;5041727;28;20202;-74
2021/01/12 08:38:22;;;;;;;1.53;0.90;;;8.10;99.90;;;;;;5028551;28;20912;-76
2021/01/12 08:40:58;;;;;;;1.90;1.00;;;8.10;99.90;;;;;;5026963;28;20218;-74
2021/01/12 08:43:29;;;;;;;2.83;1.30;;;8.10;99.90;;;;;;5037345;28;20308;-74
2021/01/12 08:46:00;;;;;;;1.40;1.00;;;8.20;99.90;;;;;;5023083;28;20302;-76
2021/01/12 08:48:28;;;;;;;1.97;0.90;;;8.30;99.90;;;;;;5029302;28;20218;-75
2021/01/12 08:50:54;;;;;;;2.87;1.10;;;8.20;99.90;;;;;;5038409;28;20740;-73
2021/01/12 08:53:31;;;;;;;2.33;1.27;;;8.20;99.90;;;;;;5022050;28;20200;-75
2021/01/12 08:56:07;;;;;;;4.53;1.40;;;8.20;99.90;;;;;;5044336;28;20242;-79
2021/01/12 08:58:35;;;;;;;3.67;1.33;;;8.20;99.90;;;;;;5023835;28;20663;-74
2021/01/12 09:01:03;;;;;;;2.47;1.40;;;8.20;99.90;;;;;;5024219;28;20213;-78
2021/01/12 09:03:31;;;;;;;6.23;2.17;;;8.00;99.90;;;;;;5024347;28;20205;-75
2021/01/12 09:05:57;;;;;;;2.70;1.63;;;8.10;99.90;;;;;;5019937;28;20319;-76
2021/01/12 09:08:26;;;;;;;2.93;1.80;;;8.20;99.90;;;;;;5036710;28;20249;-74
2021/01/12 09:10:53;;;;;;;1.90;1.40;;;8.30;99.90;;;;;;5023918;28;20205;-74
2021/01/12 09:13:27;;;;;;;2.33;1.50;;;8.20;99.90;;;;;;5049445;28;20196;-73
2021/01/12 09:15:54;;;;;;;2.83;1.60;;;8.30;99.90;;;;;;5035006;28;20198;-77
2021/01/12 09:18:25;;;;;;;2.77;1.80;;;8.30;99.90;;;;;;5020454;28;20307;-77
2021/01/12 09:20:59;;;;;;;5.90;2.07;;;8.20;99.90;;;;;;5034936;28;20594;-74
2021/01/12 09:23:27;;;;;;;5.30;1.87;;;8.20;99.90;;;;;;5029499;28;20200;-75
2021/01/12 09:25:54;;;;;;;6.83;1.83;;;8.10;99.90;;;;;;5032931;28;20938;-76
2021/01/12 09:28:26;;;;;;;3.97;1.93;;;8.20;99.90;;;;;;5038018;28;20207;-76
2021/01/12 09:31:04;;;;;;;4.57;1.83;;;8.10;99.90;;;;;;5028371;28;20198;-74
2021/01/12 09:33:30;;;;;;;3.43;2.07;;;8.00;99.90;;;;;;5047697;28;20199;-75
2021/01/12 09:36:07;;;;;;;3.03;1.70;;;8.00;99.90;;;;;;5028970;28;20204;-75
2021/01/12 09:38:51;;;;;;;6.77;1.80;;;7.90;99.90;;;;;;5028410;28;20528;-76
2021/01/12 09:41:30;;;;;;;4.00;1.87;;;7.80;99.90;;;;;;5045331;28;20249;-77
2021/01/12 09:43:57;;;;;;;3.70;1.90;;;7.70;99.90;;;;;;5031078;28;20199;-78
2021/01/12 09:46:23;;;;;;;3.80;1.50;;;7.60;99.90;;;;;;5025042;28;20242;-75
2021/01/12 09:48:50;;;;;;;2.07;1.50;;;7.60;99.90;;;;;;5025060;28;20246;-74
2021/01/12 09:51:17;;;;;;;1.47;1.27;;;7.60;99.90;;;;;;5027975;28;20534;-75
2021/01/12 09:53:48;;;;;;;2.93;1.43;;;7.40;99.90;;;;;;5027195;28;20213;-76
2021/01/12 09:56:16;;;;;;;3.27;1.27;;;7.30;99.90;;;;;;5043008;28;20255;-75
2021/01/12 09:58:44;;;;;;;3.20;1.57;;;7.40;99.90;;;;;;5033951;28;20592;-74
2021/01/12 10:01:12;;;;;;;3.10;1.60;;;7.50;99.90;;;;;;5042078;28;20566;-74
2021/01/12 10:03:43;;;;;;;1.97;1.37;;;7.50;99.90;;;;;;5040854;28;20274;-75
2021/01/12 10:06:22;;;;;;;2.67;1.47;;;7.50;99.90;;;;;;5024326;28;20200;-74
2021/01/12 10:08:48;;;;;;;2.87;1.77;;;7.60;99.90;;;;;;5031537;28;20202;-74
2021/01/12 10:11:16;;;;;;;5.60;1.90;;;7.80;99.90;;;;;;5043707;28;20341;-74
2021/01/12 10:13:46;;;;;;;5.70;2.00;;;7.70;99.90;;;;;;5029667;28;20547;-74
2021/01/12 10:16:23;;;;;;;3.23;1.40;;;7.60;99.90;;;;;;5021400;28;21141;-74
2021/01/12 10:18:50;;;;;;;3.80;1.20;;;7.80;99.90;;;;;;5026472;28;20311;-74
2021/01/12 10:21:18;;;;;;;1.40;1.00;;;7.80;99.90;;;;;;5031834;28;20232;-76
2021/01/12 10:23:45;;;;;;;2.80;0.70;;;7.90;99.90;;;;;;5023515;28;20198;-74
2021/01/12 10:26:16;;;;;;;3.10;0.50;;;7.70;99.90;;;;;;5040593;28;20723;-73
2021/01/12 10:28:43;;;;;;;3.57;0.60;;;7.60;99.90;;;;;;5028850;28;20235;-72
2021/01/12 10:31:13;;;;;;;2.20;0.70;;;7.90;99.90;;;;;;5027992;28;21733;-74
2021/01/12 10:33:41;;;;;;;1.63;0.93;;;7.90;99.90;;;;;;5015257;28;20205;-74
2021/01/12 10:36:11;;;;;;;1.93;1.07;;;7.80;99.90;;;;;;5030623;28;20224;-77
2021/01/12 10:38:37;;;;;;;2.77;0.77;;;7.70;99.90;;;;;;5032468;28;20254;-75
2021/01/12 10:41:04;;;;;;;4.00;1.23;;;7.60;99.90;;;;;;5013622;28;20199;-74
2021/01/12 10:43:30;;;;;;;2.00;1.20;;;7.60;99.90;;;;;;5040817;28;21688;-77
2021/01/12 10:45:57;;;;;;;3.83;1.47;;;7.60;99.90;;;;;;5024759;28;20269;-76
2021/01/12 10:48:24;;;;;;;3.77;1.00;;;7.60;99.90;;;;;;5028972;28;20210;-74
2021/01/12 10:50:50;;;;;;;3.30;0.90;;;7.50;99.90;;;;;;5021808;28;20226;-73
2021/01/12 10:53:16;;;;;;;1.87;1.03;;;7.50;99.90;;;;;;5042506;28;20202;-73
2021/01/12 10:55:43;;;;;;;1.43;0.90;;;7.50;99.90;;;;;;5012113;28;20220;-74
2021/01/12 10:58:13;;;;;;;2.17;1.03;;;7.40;99.90;;;;;;5031780;28;20210;-74
2021/01/12 11:00:39;;;;;;;7.97;1.43;;;7.20;99.90;;;;;;5016604;28;20312;-80
2021/01/12 11:03:07;;;;;;;2.67;1.20;;;7.30;99.90;;;;;;5023189;28;20209;-75
2021/01/12 11:05:37;;;;;;;2.37;1.10;;;7.60;99.90;;;;;;5011947;28;20505;-74
2021/01/12 11:08:04;;;;;;;6.70;1.20;;;7.60;99.90;;;;;;5026573;28;20222;-73
2021/01/12 11:10:31;;;;;;;7.77;0.90;;;7.80;99.90;;;;;;5021953;28;20314;-74
2021/01/12 11:13:00;;;;;;;2.50;0.90;;;7.90;99.90;;;;;;5038355;28;20547;-73
2021/01/12 11:15:27;;;;;;;2.10;1.00;;;8.10;99.90;;;;;;5019614;28;20260;-77
2021/01/12 11:17:53;;;;;;;2.43;1.23;;;8.10;99.90;;;;;;5037792;28;20326;-75
2021/01/12 11:20:24;;;;;;;1.23;0.97;;;7.70;99.90;;;;;;5023396;28;20231;-74
2021/01/12 11:22:50;;;;;;;1.53;0.90;;;7.70;99.90;;;;;;5021932;28;20215;-75
2021/01/12 11:25:17;;;;;;;6.23;1.43;;;7.70;99.90;;;;;;5030261;28;20201;-76
2021/01/12 11:27:43;;;;;;;2.37;0.70;;;7.60;99.90;;;;;;5019257;28;22192;-79
2021/01/12 11:30:10;;;;;;;1.20;0.50;;;7.60;99.90;;;;;;5011100;28;20299;-77
2021/01/12 11:32:39;;;;;;;1.07;0.63;;;7.50;99.90;;;;;;5054078;28;20208;-75
2021/01/12 11:35:06;;;;;;;0.63;0.47;;;7.50;99.90;;;;;;5005806;28;20201;-77
2021/01/12 11:37:32;;;;;;;2.73;0.90;;;7.80;99.90;;;;;;5011130;28;20217;-74
2021/01/12 11:39:59;;;;;;;6.23;1.70;;;7.90;99.90;;;;;;5018443;28;20204;-75
2021/01/12 11:42:26;;;;;;;3.07;0.77;;;8.70;99.90;;;;;;5045183;28;20206;-74
2021/01/12 11:44:52;;;;;;;5.23;0.60;;;9.00;99.90;;;;;;5033502;28;20566;-76
2021/01/12 11:47:19;;;;;;;1.83;0.70;;;9.00;99.90;;;;;;5041940;28;20671;-77
2021/01/12 11:49:47;;;;;;;3.73;0.57;;;8.40;99.90;;;;;;5033087;28;20203;-74
2021/01/12 11:52:15;;;;;;;6.17;1.50;;;8.30;99.90;;;;;;5031176;28;20281;-74
2021/01/12 11:54:42;;;;;;;4.27;1.07;;;8.40;99.90;;;;;;5048323;28;20200;-74
2021/01/12 11:57:10;;;;;;;0.90;0.30;;;8.30;99.90;;;;;;5035178;28;20662;-74
2021/01/12 11:59:37;;;;;;;1.33;0.30;;;8.10;99.90;;;;;;5039156;28;20286;-75
2021/01/12 12:02:03;;;;;;;1.20;0.50;;;8.50;99.90;;;;;;5034788;28;20230;-75
2021/01/12 12:04:30;;;;;;;4.70;0.37;;;7.80;99.90;;;;;;5035063;28;20254;-73
2021/01/12 12:07:02;;;;;;;5.13;0.93;;;7.80;99.90;;;;;;5016701;28;20246;-74
2021/01/12 12:09:30;;;;;;;3.73;1.03;;;7.90;99.90;;;;;;5025921;28;20202;-74
2021/01/12 12:11:57;;;;;;;7.33;1.00;;;7.70;99.90;;;;;;5043678;28;20196;-74
2021/01/12 12:14:25;;;;;;;6.50;1.00;;;7.60;99.90;;;;;;5029001;28;20666;-80
2021/01/12 12:16:51;;;;;;;3.07;0.70;;;7.50;99.90;;;;;;5015351;28;20200;-80
2021/01/12 12:19:19;;;;;;;3.43;0.57;;;7.60;99.90;;;;;;5021109;28;20254;-80
2021/01/12 12:21:53;;;;;;;2.37;0.60;;;7.50;99.90;;;;;;5046774;28;20294;-80
2021/01/12 12:24:30;;;;;;;2.63;0.90;;;7.40;99.90;;;;;;5025183;28;20979;-79
2021/01/12 12:27:00;;;;;;;2.83;0.87;;;7.70;99.90;;;;;;5048209;28;20218;-78
2021/01/12 12:29:27;;;;;;;3.37;0.70;;;7.90;99.90;;;;;;5034633;28;20249;-79
2021/01/12 12:31:56;;;;;;;3.10;1.07;;;8.00;99.90;;;;;;5027866;28;21740;-79
2021/01/12 12:34:23;;;;;;;3.10;0.67;;;7.90;99.90;;;;;;5025936;28;20250;-80
2021/01/12 12:36:50;;;;;;;3.40;0.33;;;7.80;99.90;;;;;;5047882;28;20573;-80
2021/01/12 12:39:17;;;;;;;3.93;0.50;;;7.40;99.90;;;;;;5042433;28;20202;-82
2021/01/12 12:41:44;;;;;;;2.20;0.50;;;7.60;99.90;;;;;;5024147;28;20208;-78
2021/01/12 12:44:10;;;;;;;5.93;0.60;;;8.00;99.90;;;;;;5021387;28;20196;-79
2021/01/12 12:46:36;;;;;;;10.00;0.90;;;8.70;99.90;;;;;;5045819;28;20287;-79
2021/01/12 12:49:03;;;;;;;1.50;0.57;;;9.00;99.90;;;;;;5032254;28;20574;-78
2021/01/12 12:51:29;;;;;;;5.23;0.67;;;8.90;99.90;;;;;;5041074;28;20304;-79
2021/01/12 12:53:56;;;;;;;0.87;0.20;;;9.20;99.90;;;;;;5026732;28;20262;-79
2021/01/12 12:56:23;;;;;;;3.77;0.43;;;9.00;99.90;;;;;;5038508;28;20217;-79
2021/01/12 12:58:50;;;;;;;6.63;0.60;;;9.30;99.90;;;;;;5023645;28;20209;-78
2021/01/12 13:01:17;;;;;;;3.30;0.90;;;9.60;99.90;;;;;;5059296;28;20197;-78
2021/01/12 13:03:44;;;;;;;0.80;0.20;;;9.80;99.90;;;;;;5025194;28;20275;-79
2021/01/12 13:06:11;;;;;;;1.80;0.53;;;9.90;99.90;;;;;;5027709;28;20193;-80
2021/01/12 13:08:38;;;;;;;5.80;0.70;;;10.10;99.90;;;;;;5014197;28;20257;-81